sensor_id;sensor_type;location;lat;lon;timestamp;P1;durP1;ratioP1;P2;durP2;ratioP2
7047;SDS011;3565;53.254;10.352;2023-03-01T00:02:04;19.90;;;11.53;;
7047;SDS011;3565;53.254;10.352;2023-03-01T00:04:33;17.73;;;11.60;;
7047;SDS011;3565;53.254;10.352;2023-03-01T00:07:03;19.97;;;12.00;;
7047;SDS011;3565;53.254;10.352;2023-03-01T00:09:32;21.30;;;12.23;;
7047;SDS011;3565;53.254;10.352;2023-03-01T00:12:11;19.40;;;12.40;;
7047;SDS011;3565;53.254;10.352;2023-03-01T00:14:40;15.17;;;10.30;;
7047;SDS011;3565;53.254;10.352;2023-03-01T00:17:09;13.40;;;9.17;;
7047;SDS011;3565;53.254;10.352;2023-03-01T00:19:38;14.20;;;9.43;;
7047;SDS011;3565;53.254;10.352;2023-03-01T00:22:08;14.87;;;10.00;;
7047;SDS011;3565;53.254;10.352;2023-03-01T00:24:38;14.93;;;9.87;;
7047;SDS011;3565;53.254;10.352;2023-03-01T00:27:07;15.30;;;10.47;;
7047;SDS011;3565;53.254;10.352;2023-03-01T00:29:36;13.80;;;9.17;;
7047;SDS011;3565;53.254;10.352;2023-03-01T00:32:05;13.03;;;8.90;;
7047;SDS011;3565;53.254;10.352;2023-03-01T00:34:35;14.23;;;9.90;;
7047;SDS011;3565;53.254;10.352;2023-03-01T00:37:04;18.73;;;12.03;;
7047;SDS011;3565;53.254;10.352;2023-03-01T00:39:33;26.63;;;13.57;;
7047;SDS011;3565;53.254;10.352;2023-03-01T00:42:02;19.97;;;12.60;;
7047;SDS011;3565;53.254;10.352;2023-03-01T00:44:32;24.23;;;14.77;;
7047;SDS011;3565;53.254;10.352;2023-03-01T00:47:01;25.10;;;14.93;;
7047;SDS011;3565;53.254;10.352;2023-03-01T00:49:31;25.20;;;14.23;;
7047;SDS011;3565;53.254;10.352;2023-03-01T00:52:03;22.43;;;12.33;;
7047;SDS011;3565;53.254;10.352;2023-03-01T00:54:32;22.40;;;12.53;;
7047;SDS011;3565;53.254;10.352;2023-03-01T00:57:01;18.23;;;10.60;;
7047;SDS011;3565;53.254;10.352;2023-03-01T00:59:32;13.03;;;8.73;;
7047;SDS011;3565;53.254;10.352;2023-03-01T01:02:10;11.60;;;7.93;;
7047;SDS011;3565;53.254;10.352;2023-03-01T01:04:40;10.47;;;7.30;;
7047;SDS011;3565;53.254;10.352;2023-03-01T01:07:09;10.40;;;6.60;;
7047;SDS011;3565;53.254;10.352;2023-03-01T01:09:39;8.30;;;6.37;;
7047;SDS011;3565;53.254;10.352;2023-03-01T01:12:08;8.13;;;6.30;;
7047;SDS011;3565;53.254;10.352;2023-03-01T01:17:14;7.70;;;6.00;;
7047;SDS011;3565;53.254;10.352;2023-03-01T01:19:44;10.53;;;6.60;;
7047;SDS011;3565;53.254;10.352;2023-03-01T01:22:13;8.67;;;5.53;;
7047;SDS011;3565;53.254;10.352;2023-03-01T01:24:43;6.63;;;5.47;;
7047;SDS011;3565;53.254;10.352;2023-03-01T01:27:12;7.33;;;5.30;;
7047;SDS011;3565;53.254;10.352;2023-03-01T01:29:42;6.93;;;5.50;;
7047;SDS011;3565;53.254;10.352;2023-03-01T01:32:11;9.67;;;5.87;;
7047;SDS011;3565;53.254;10.352;2023-03-01T01:34:40;7.07;;;6.13;;
7047;SDS011;3565;53.254;10.352;2023-03-01T01:37:09;6.63;;;5.60;;
7047;SDS011;3565;53.254;10.352;2023-03-01T01:39:38;6.60;;;5.23;;
7047;SDS011;3565;53.254;10.352;2023-03-01T01:42:09;8.27;;;5.50;;
7047;SDS011;3565;53.254;10.352;2023-03-01T01:44:44;8.70;;;5.77;;
7047;SDS011;3565;53.254;10.352;2023-03-01T01:47:15;8.80;;;5.93;;
7047;SDS011;3565;53.254;10.352;2023-03-01T01:49:46;8.93;;;5.80;;
7047;SDS011;3565;53.254;10.352;2023-03-01T01:52:17;9.73;;;6.50;;
7047;SDS011;3565;53.254;10.352;2023-03-01T01:54:49;8.33;;;6.50;;
7047;SDS011;3565;53.254;10.352;2023-03-01T01:57:22;8.33;;;6.80;;
7047;SDS011;3565;53.254;10.352;2023-03-01T02:00:04;10.60;;;6.20;;
7047;SDS011;3565;53.254;10.352;2023-03-01T02:02:34;9.37;;;6.47;;
7047;SDS011;3565;53.254;10.352;2023-03-01T02:05:06;12.37;;;6.40;;
7047;SDS011;3565;53.254;10.352;2023-03-01T02:10:15;8.97;;;6.93;;
7047;SDS011;3565;53.254;10.352;2023-03-01T02:12:45;10.57;;;7.10;;
7047;SDS011;3565;53.254;10.352;2023-03-01T02:15:15;10.60;;;6.77;;
7047;SDS011;3565;53.254;10.352;2023-03-01T02:20:14;11.27;;;7.47;;
7047;SDS011;3565;53.254;10.352;2023-03-01T02:22:45;12.57;;;7.57;;
7047;SDS011;3565;53.254;10.352;2023-03-01T02:25:24;10.00;;;6.67;;
7047;SDS011;3565;53.254;10.352;2023-03-01T02:27:58;10.67;;;6.67;;
7047;SDS011;3565;53.254;10.352;2023-03-01T02:30:29;9.70;;;6.87;;
7047;SDS011;3565;53.254;10.352;2023-03-01T02:33:00;8.40;;;6.27;;
7047;SDS011;3565;53.254;10.352;2023-03-01T02:35:32;8.40;;;6.20;;
7047;SDS011;3565;53.254;10.352;2023-03-01T02:38:03;8.93;;;6.30;;
7047;SDS011;3565;53.254;10.352;2023-03-01T02:40:35;9.37;;;6.37;;
7047;SDS011;3565;53.254;10.352;2023-03-01T02:43:06;7.77;;;5.90;;
7047;SDS011;3565;53.254;10.352;2023-03-01T02:45:37;8.27;;;6.10;;
7047;SDS011;3565;53.254;10.352;2023-03-01T02:48:12;9.00;;;6.13;;
7047;SDS011;3565;53.254;10.352;2023-03-01T02:50:47;7.53;;;6.13;;
7047;SDS011;3565;53.254;10.352;2023-03-01T02:53:22;8.30;;;6.10;;
7047;SDS011;3565;53.254;10.352;2023-03-01T02:55:55;7.27;;;5.30;;
7047;SDS011;3565;53.254;10.352;2023-03-01T02:58:25;7.47;;;5.83;;
7047;SDS011;3565;53.254;10.352;2023-03-01T03:00:55;8.10;;;6.30;;
7047;SDS011;3565;53.254;10.352;2023-03-01T03:03:27;8.23;;;6.23;;
7047;SDS011;3565;53.254;10.352;2023-03-01T03:05:56;10.73;;;7.00;;
7047;SDS011;3565;53.254;10.352;2023-03-01T03:08:25;10.23;;;6.60;;
7047;SDS011;3565;53.254;10.352;2023-03-01T03:10:55;12.90;;;7.23;;
7047;SDS011;3565;53.254;10.352;2023-03-01T03:13:24;9.27;;;6.50;;
7047;SDS011;3565;53.254;10.352;2023-03-01T03:15:54;10.73;;;7.47;;
7047;SDS011;3565;53.254;10.352;2023-03-01T03:18:24;14.73;;;8.23;;
7047;SDS011;3565;53.254;10.352;2023-03-01T03:20:54;14.10;;;8.30;;
7047;SDS011;3565;53.254;10.352;2023-03-01T03:23:24;20.17;;;9.00;;
7047;SDS011;3565;53.254;10.352;2023-03-01T03:25:53;15.57;;;8.67;;
7047;SDS011;3565;53.254;10.352;2023-03-01T03:28:22;14.60;;;9.17;;
7047;SDS011;3565;53.254;10.352;2023-03-01T03:30:51;15.10;;;8.07;;
7047;SDS011;3565;53.254;10.352;2023-03-01T03:33:20;11.50;;;8.03;;
7047;SDS011;3565;53.254;10.352;2023-03-01T03:35:50;11.23;;;7.73;;
7047;SDS011;3565;53.254;10.352;2023-03-01T03:38:19;13.17;;;7.53;;
7047;SDS011;3565;53.254;10.352;2023-03-01T03:40:49;11.07;;;7.03;;
7047;SDS011;3565;53.254;10.352;2023-03-01T03:43:20;8.77;;;6.23;;
7047;SDS011;3565;53.254;10.352;2023-03-01T03:45:50;9.17;;;6.77;;
7047;SDS011;3565;53.254;10.352;2023-03-01T03:48:28;9.37;;;6.10;;
7047;SDS011;3565;53.254;10.352;2023-03-01T03:50:58;8.67;;;6.57;;
7047;SDS011;3565;53.254;10.352;2023-03-01T03:53:27;10.53;;;6.40;;
7047;SDS011;3565;53.254;10.352;2023-03-01T03:56:07;10.27;;;6.63;;
7047;SDS011;3565;53.254;10.352;2023-03-01T03:58:37;11.07;;;7.10;;
7047;SDS011;3565;53.254;10.352;2023-03-01T04:01:06;8.67;;;6.90;;
7047;SDS011;3565;53.254;10.352;2023-03-01T04:03:36;10.80;;;6.20;;
7047;SDS011;3565;53.254;10.352;2023-03-01T04:06:05;8.57;;;6.73;;
7047;SDS011;3565;53.254;10.352;2023-03-01T04:08:44;11.23;;;6.90;;
7047;SDS011;3565;53.254;10.352;2023-03-01T04:11:15;11.57;;;6.97;;
7047;SDS011;3565;53.254;10.352;2023-03-01T04:13:54;9.63;;;7.33;;
7047;SDS011;3565;53.254;10.352;2023-03-01T04:16:24;9.07;;;6.77;;
7047;SDS011;3565;53.254;10.352;2023-03-01T04:18:54;9.77;;;7.27;;
7047;SDS011;3565;53.254;10.352;2023-03-01T04:21:25;9.80;;;6.47;;
7047;SDS011;3565;53.254;10.352;2023-03-01T04:23:54;13.23;;;7.30;;
7047;SDS011;3565;53.254;10.352;2023-03-01T04:26:24;10.63;;;6.93;;
7047;SDS011;3565;53.254;10.352;2023-03-01T04:28:54;8.83;;;6.90;;
7047;SDS011;3565;53.254;10.352;2023-03-01T04:31:23;9.23;;;6.30;;
7047;SDS011;3565;53.254;10.352;2023-03-01T04:33:53;8.90;;;5.87;;
7047;SDS011;3565;53.254;10.352;2023-03-01T04:36:23;8.50;;;5.53;;
7047;SDS011;3565;53.254;10.352;2023-03-01T04:38:54;8.50;;;6.43;;
7047;SDS011;3565;53.254;10.352;2023-03-01T04:41:24;11.37;;;6.37;;
7047;SDS011;3565;53.254;10.352;2023-03-01T04:43:54;10.13;;;6.70;;
7047;SDS011;3565;53.254;10.352;2023-03-01T04:46:24;9.17;;;6.20;;
7047;SDS011;3565;53.254;10.352;2023-03-01T04:48:53;9.17;;;6.10;;
7047;SDS011;3565;53.254;10.352;2023-03-01T04:51:22;7.40;;;5.83;;
7047;SDS011;3565;53.254;10.352;2023-03-01T04:53:51;7.23;;;5.70;;
7047;SDS011;3565;53.254;10.352;2023-03-01T04:56:20;9.43;;;5.97;;
7047;SDS011;3565;53.254;10.352;2023-03-01T04:58:49;7.50;;;6.00;;
7047;SDS011;3565;53.254;10.352;2023-03-01T05:01:21;7.87;;;5.30;;
7047;SDS011;3565;53.254;10.352;2023-03-01T05:03:51;10.67;;;5.37;;
7047;SDS011;3565;53.254;10.352;2023-03-01T05:06:21;5.13;;;4.50;;
7047;SDS011;3565;53.254;10.352;2023-03-01T05:08:50;6.43;;;5.60;;
7047;SDS011;3565;53.254;10.352;2023-03-01T05:11:19;5.50;;;4.67;;
7047;SDS011;3565;53.254;10.352;2023-03-01T05:13:48;7.80;;;4.97;;
7047;SDS011;3565;53.254;10.352;2023-03-01T05:16:19;5.53;;;4.77;;
7047;SDS011;3565;53.254;10.352;2023-03-01T05:18:48;5.03;;;4.20;;
7047;SDS011;3565;53.254;10.352;2023-03-01T05:21:17;6.50;;;5.10;;
7047;SDS011;3565;53.254;10.352;2023-03-01T05:23:46;6.23;;;4.67;;
7047;SDS011;3565;53.254;10.352;2023-03-01T05:26:16;6.23;;;5.47;;
7047;SDS011;3565;53.254;10.352;2023-03-01T05:28:48;7.10;;;4.73;;
7047;SDS011;3565;53.254;10.352;2023-03-01T05:31:17;6.40;;;4.97;;
7047;SDS011;3565;53.254;10.352;2023-03-01T05:33:47;8.57;;;5.87;;
7047;SDS011;3565;53.254;10.352;2023-03-01T05:36:16;7.70;;;6.17;;
7047;SDS011;3565;53.254;10.352;2023-03-01T05:38:45;8.53;;;6.50;;
7047;SDS011;3565;53.254;10.352;2023-03-01T05:41:15;9.23;;;6.17;;
7047;SDS011;3565;53.254;10.352;2023-03-01T05:43:44;9.77;;;6.70;;
7047;SDS011;3565;53.254;10.352;2023-03-01T05:46:14;5.97;;;5.17;;
7047;SDS011;3565;53.254;10.352;2023-03-01T05:48:43;7.43;;;5.90;;
7047;SDS011;3565;53.254;10.352;2023-03-01T05:51:12;9.30;;;7.47;;
7047;SDS011;3565;53.254;10.352;2023-03-01T05:53:42;10.77;;;8.50;;
7047;SDS011;3565;53.254;10.352;2023-03-01T05:56:11;11.37;;;7.37;;
7047;SDS011;3565;53.254;10.352;2023-03-01T05:58:41;8.57;;;6.07;;
7047;SDS011;3565;53.254;10.352;2023-03-01T06:01:11;6.07;;;5.47;;
7047;SDS011;3565;53.254;10.352;2023-03-01T06:03:40;8.70;;;6.17;;
7047;SDS011;3565;53.254;10.352;2023-03-01T06:06:10;9.63;;;6.73;;
7047;SDS011;3565;53.254;10.352;2023-03-01T06:08:39;7.70;;;6.00;;
7047;SDS011;3565;53.254;10.352;2023-03-01T06:11:08;10.20;;;6.97;;
7047;SDS011;3565;53.254;10.352;2023-03-01T06:13:37;7.60;;;6.10;;
7047;SDS011;3565;53.254;10.352;2023-03-01T06:16:09;8.17;;;5.33;;
7047;SDS011;3565;53.254;10.352;2023-03-01T06:18:39;8.47;;;5.97;;
7047;SDS011;3565;53.254;10.352;2023-03-01T06:21:09;8.07;;;6.63;;
7047;SDS011;3565;53.254;10.352;2023-03-01T06:23:38;7.27;;;6.00;;
7047;SDS011;3565;53.254;10.352;2023-03-01T06:26:07;9.50;;;6.30;;
7047;SDS011;3565;53.254;10.352;2023-03-01T06:28:37;8.07;;;6.03;;
7047;SDS011;3565;53.254;10.352;2023-03-01T06:31:07;7.87;;;5.60;;
7047;SDS011;3565;53.254;10.352;2023-03-01T06:33:37;9.63;;;6.03;;
7047;SDS011;3565;53.254;10.352;2023-03-01T06:36:07;8.97;;;6.43;;
7047;SDS011;3565;53.254;10.352;2023-03-01T06:38:37;8.80;;;5.67;;
7047;SDS011;3565;53.254;10.352;2023-03-01T06:41:07;8.70;;;6.20;;
7047;SDS011;3565;53.254;10.352;2023-03-01T06:43:36;8.30;;;6.70;;
7047;SDS011;3565;53.254;10.352;2023-03-01T06:46:06;9.03;;;6.20;;
7047;SDS011;3565;53.254;10.352;2023-03-01T06:48:35;7.30;;;5.77;;
7047;SDS011;3565;53.254;10.352;2023-03-01T06:51:05;6.30;;;5.60;;
7047;SDS011;3565;53.254;10.352;2023-03-01T06:53:34;6.30;;;5.67;;
7047;SDS011;3565;53.254;10.352;2023-03-01T06:56:04;7.43;;;5.70;;
7047;SDS011;3565;53.254;10.352;2023-03-01T06:58:34;8.30;;;6.37;;
7047;SDS011;3565;53.254;10.352;2023-03-01T07:01:05;9.33;;;6.07;;
7047;SDS011;3565;53.254;10.352;2023-03-01T07:03:36;9.00;;;6.50;;
7047;SDS011;3565;53.254;10.352;2023-03-01T07:06:06;11.20;;;7.13;;
7047;SDS011;3565;53.254;10.352;2023-03-01T07:08:35;6.87;;;5.70;;
7047;SDS011;3565;53.254;10.352;2023-03-01T07:11:05;7.47;;;5.97;;
7047;SDS011;3565;53.254;10.352;2023-03-01T07:13:34;7.73;;;5.90;;
7047;SDS011;3565;53.254;10.352;2023-03-01T07:16:05;10.47;;;6.47;;
7047;SDS011;3565;53.254;10.352;2023-03-01T07:18:36;11.67;;;6.93;;
7047;SDS011;3565;53.254;10.352;2023-03-01T07:21:06;10.73;;;5.93;;
7047;SDS011;3565;53.254;10.352;2023-03-01T07:23:36;9.03;;;6.40;;
7047;SDS011;3565;53.254;10.352;2023-03-01T07:26:05;7.13;;;5.93;;
7047;SDS011;3565;53.254;10.352;2023-03-01T07:28:34;9.13;;;6.40;;
7047;SDS011;3565;53.254;10.352;2023-03-01T07:31:05;6.80;;;5.40;;
7047;SDS011;3565;53.254;10.352;2023-03-01T07:33:36;10.57;;;6.50;;
7047;SDS011;3565;53.254;10.352;2023-03-01T07:36:06;7.53;;;5.53;;
7047;SDS011;3565;53.254;10.352;2023-03-01T07:38:36;7.43;;;5.80;;
7047;SDS011;3565;53.254;10.352;2023-03-01T07:41:05;9.53;;;6.93;;
7047;SDS011;3565;53.254;10.352;2023-03-01T07:46:13;6.63;;;4.90;;
7047;SDS011;3565;53.254;10.352;2023-03-01T07:48:42;7.53;;;4.60;;
7047;SDS011;3565;53.254;10.352;2023-03-01T07:51:12;6.97;;;4.87;;
7047;SDS011;3565;53.254;10.352;2023-03-01T07:53:41;7.17;;;5.73;;
7047;SDS011;3565;53.254;10.352;2023-03-01T07:56:13;7.27;;;5.00;;
7047;SDS011;3565;53.254;10.352;2023-03-01T07:58:44;7.90;;;5.53;;
7047;SDS011;3565;53.254;10.352;2023-03-01T08:01:23;6.63;;;5.40;;
7047;SDS011;3565;53.254;10.352;2023-03-01T08:03:52;6.37;;;5.33;;
7047;SDS011;3565;53.254;10.352;2023-03-01T08:06:21;8.60;;;5.30;;
7047;SDS011;3565;53.254;10.352;2023-03-01T08:08:50;8.03;;;5.80;;
7047;SDS011;3565;53.254;10.352;2023-03-01T08:11:21;8.90;;;6.50;;
7047;SDS011;3565;53.254;10.352;2023-03-01T08:13:50;8.23;;;6.20;;
7047;SDS011;3565;53.254;10.352;2023-03-01T08:16:20;8.27;;;6.10;;
7047;SDS011;3565;53.254;10.352;2023-03-01T08:18:49;9.90;;;7.10;;
7047;SDS011;3565;53.254;10.352;2023-03-01T08:21:18;13.70;;;9.97;;
7047;SDS011;3565;53.254;10.352;2023-03-01T08:23:47;13.20;;;10.43;;
7047;SDS011;3565;53.254;10.352;2023-03-01T08:26:17;12.13;;;9.40;;
7047;SDS011;3565;53.254;10.352;2023-03-01T08:28:48;9.73;;;6.17;;
7047;SDS011;3565;53.254;10.352;2023-03-01T08:31:18;9.70;;;7.10;;
7047;SDS011;3565;53.254;10.352;2023-03-01T08:33:50;9.00;;;6.83;;
7047;SDS011;3565;53.254;10.352;2023-03-01T08:36:22;10.80;;;7.67;;
7047;SDS011;3565;53.254;10.352;2023-03-01T08:38:52;11.80;;;8.20;;
7047;SDS011;3565;53.254;10.352;2023-03-01T08:41:22;10.23;;;7.50;;
7047;SDS011;3565;53.254;10.352;2023-03-01T08:43:51;17.83;;;11.33;;
7047;SDS011;3565;53.254;10.352;2023-03-01T08:46:22;15.30;;;9.77;;
7047;SDS011;3565;53.254;10.352;2023-03-01T08:48:51;8.87;;;5.40;;
7047;SDS011;3565;53.254;10.352;2023-03-01T08:51:20;7.33;;;5.73;;
7047;SDS011;3565;53.254;10.352;2023-03-01T08:53:51;9.53;;;6.90;;
7047;SDS011;3565;53.254;10.352;2023-03-01T08:56:20;8.23;;;5.93;;
7047;SDS011;3565;53.254;10.352;2023-03-01T08:58:49;6.97;;;6.00;;
7047;SDS011;3565;53.254;10.352;2023-03-01T09:01:19;7.10;;;6.23;;
7047;SDS011;3565;53.254;10.352;2023-03-01T09:03:49;4.53;;;4.00;;
7047;SDS011;3565;53.254;10.352;2023-03-01T09:06:18;5.10;;;4.60;;
7047;SDS011;3565;53.254;10.352;2023-03-01T09:08:48;5.13;;;4.60;;
7047;SDS011;3565;53.254;10.352;2023-03-01T09:11:19;6.03;;;4.70;;
7047;SDS011;3565;53.254;10.352;2023-03-01T09:13:50;6.77;;;4.93;;
7047;SDS011;3565;53.254;10.352;2023-03-01T09:16:19;6.00;;;4.60;;
7047;SDS011;3565;53.254;10.352;2023-03-01T09:18:49;9.63;;;5.20;;
7047;SDS011;3565;53.254;10.352;2023-03-01T09:21:19;5.87;;;4.10;;
7047;SDS011;3565;53.254;10.352;2023-03-01T09:23:49;7.10;;;4.70;;
7047;SDS011;3565;53.254;10.352;2023-03-01T09:26:19;5.40;;;4.30;;
7047;SDS011;3565;53.254;10.352;2023-03-01T09:28:50;7.97;;;5.07;;
7047;SDS011;3565;53.254;10.352;2023-03-01T09:31:21;7.10;;;4.53;;
7047;SDS011;3565;53.254;10.352;2023-03-01T09:33:52;6.63;;;5.30;;
7047;SDS011;3565;53.254;10.352;2023-03-01T09:36:22;7.00;;;5.20;;
7047;SDS011;3565;53.254;10.352;2023-03-01T09:38:52;7.60;;;5.20;;
7047;SDS011;3565;53.254;10.352;2023-03-01T09:41:38;7.60;;;5.70;;
7047;SDS011;3565;53.254;10.352;2023-03-01T09:44:25;11.03;;;6.10;;
7047;SDS011;3565;53.254;10.352;2023-03-01T09:47:05;8.27;;;6.63;;
7047;SDS011;3565;53.254;10.352;2023-03-01T09:49:39;8.43;;;6.77;;
7047;SDS011;3565;53.254;10.352;2023-03-01T09:52:15;8.83;;;6.37;;
7047;SDS011;3565;53.254;10.352;2023-03-01T09:54:55;12.97;;;8.07;;
7047;SDS011;3565;53.254;10.352;2023-03-01T09:57:27;11.37;;;7.53;;
7047;SDS011;3565;53.254;10.352;2023-03-01T10:00:07;9.63;;;7.30;;
7047;SDS011;3565;53.254;10.352;2023-03-01T10:02:48;12.77;;;8.77;;
7047;SDS011;3565;53.254;10.352;2023-03-01T10:05:25;12.77;;;9.60;;
7047;SDS011;3565;53.254;10.352;2023-03-01T10:08:25;11.10;;;8.33;;
7047;SDS011;3565;53.254;10.352;2023-03-01T10:10:57;11.70;;;7.87;;
7047;SDS011;3565;53.254;10.352;2023-03-01T10:13:29;9.63;;;7.30;;
7047;SDS011;3565;53.254;10.352;2023-03-01T10:16:03;11.40;;;7.43;;
7047;SDS011;3565;53.254;10.352;2023-03-01T10:18:35;8.50;;;7.40;;
7047;SDS011;3565;53.254;10.352;2023-03-01T10:21:09;10.27;;;6.43;;
7047;SDS011;3565;53.254;10.352;2023-03-01T10:23:41;8.37;;;6.40;;
7047;SDS011;3565;53.254;10.352;2023-03-01T10:26:18;8.00;;;6.40;;
7047;SDS011;3565;53.254;10.352;2023-03-01T10:28:57;10.07;;;6.47;;
7047;SDS011;3565;53.254;10.352;2023-03-01T10:31:40;10.70;;;6.50;;
7047;SDS011;3565;53.254;10.352;2023-03-01T10:34:12;9.60;;;6.90;;
7047;SDS011;3565;53.254;10.352;2023-03-01T10:36:43;7.90;;;5.90;;
7047;SDS011;3565;53.254;10.352;2023-03-01T10:39:15;9.27;;;6.20;;
7047;SDS011;3565;53.254;10.352;2023-03-01T10:41:54;8.07;;;5.97;;
7047;SDS011;3565;53.254;10.352;2023-03-01T10:44:41;7.07;;;5.40;;
7047;SDS011;3565;53.254;10.352;2023-03-01T10:47:17;7.60;;;5.47;;
7047;SDS011;3565;53.254;10.352;2023-03-01T10:49:54;8.17;;;6.07;;
7047;SDS011;3565;53.254;10.352;2023-03-01T10:52:30;8.97;;;6.30;;
7047;SDS011;3565;53.254;10.352;2023-03-01T10:55:03;9.37;;;6.30;;
7047;SDS011;3565;53.254;10.352;2023-03-01T10:57:35;9.57;;;6.07;;
7047;SDS011;3565;53.254;10.352;2023-03-01T11:00:23;6.40;;;5.50;;
7047;SDS011;3565;53.254;10.352;2023-03-01T11:03:10;8.53;;;6.40;;
7047;SDS011;3565;53.254;10.352;2023-03-01T11:05:50;9.13;;;6.47;;
7047;SDS011;3565;53.254;10.352;2023-03-01T11:08:37;9.20;;;6.27;;
7047;SDS011;3565;53.254;10.352;2023-03-01T11:11:16;12.47;;;6.80;;
7047;SDS011;3565;53.254;10.352;2023-03-01T11:13:57;8.90;;;6.00;;
7047;SDS011;3565;53.254;10.352;2023-03-01T11:16:29;9.57;;;6.80;;
7047;SDS011;3565;53.254;10.352;2023-03-01T11:19:13;7.40;;;5.80;;
7047;SDS011;3565;53.254;10.352;2023-03-01T11:21:54;7.00;;;5.77;;
7047;SDS011;3565;53.254;10.352;2023-03-01T11:24:22;9.43;;;6.60;;
7047;SDS011;3565;53.254;10.352;2023-03-01T11:26:57;8.63;;;6.63;;
7047;SDS011;3565;53.254;10.352;2023-03-01T11:29:30;9.20;;;7.73;;
7047;SDS011;3565;53.254;10.352;2023-03-01T11:32:03;9.53;;;6.97;;
7047;SDS011;3565;53.254;10.352;2023-03-01T11:34:43;9.70;;;6.70;;
7047;SDS011;3565;53.254;10.352;2023-03-01T11:37:22;9.70;;;8.00;;
7047;SDS011;3565;53.254;10.352;2023-03-01T11:39:59;10.90;;;7.83;;
7047;SDS011;3565;53.254;10.352;2023-03-01T11:42:37;9.43;;;7.57;;
7047;SDS011;3565;53.254;10.352;2023-03-01T11:45:10;9.60;;;7.70;;
7047;SDS011;3565;53.254;10.352;2023-03-01T11:47:44;8.73;;;7.30;;
7047;SDS011;3565;53.254;10.352;2023-03-01T11:50:20;12.27;;;7.60;;
7047;SDS011;3565;53.254;10.352;2023-03-01T11:52:58;9.17;;;7.43;;
7047;SDS011;3565;53.254;10.352;2023-03-01T11:55:36;9.00;;;7.50;;
7047;SDS011;3565;53.254;10.352;2023-03-01T11:58:22;10.60;;;7.40;;
7047;SDS011;3565;53.254;10.352;2023-03-01T12:04:00;8.43;;;7.23;;
7047;SDS011;3565;53.254;10.352;2023-03-01T12:06:51;8.77;;;7.63;;
7047;SDS011;3565;53.254;10.352;2023-03-01T12:09:31;9.57;;;7.57;;
7047;SDS011;3565;53.254;10.352;2023-03-01T12:12:27;10.40;;;8.13;;
7047;SDS011;3565;53.254;10.352;2023-03-01T12:18:28;10.70;;;8.20;;
7047;SDS011;3565;53.254;10.352;2023-03-01T12:21:20;9.97;;;8.07;;
7047;SDS011;3565;53.254;10.352;2023-03-01T12:24:04;10.17;;;8.50;;
7047;SDS011;3565;53.254;10.352;2023-03-01T12:26:55;9.30;;;8.20;;
7047;SDS011;3565;53.254;10.352;2023-03-01T12:29:29;12.20;;;8.50;;
7047;SDS011;3565;53.254;10.352;2023-03-01T12:32:12;12.17;;;8.80;;
7047;SDS011;3565;53.254;10.352;2023-03-01T12:34:58;10.57;;;8.60;;
7047;SDS011;3565;53.254;10.352;2023-03-01T12:37:59;11.90;;;8.47;;
7047;SDS011;3565;53.254;10.352;2023-03-01T12:40:46;11.63;;;8.60;;
7047;SDS011;3565;53.254;10.352;2023-03-01T12:43:24;10.73;;;8.67;;
7047;SDS011;3565;53.254;10.352;2023-03-01T12:46:31;9.27;;;7.90;;
7047;SDS011;3565;53.254;10.352;2023-03-01T12:49:08;9.30;;;7.67;;
7047;SDS011;3565;53.254;10.352;2023-03-01T12:51:38;10.57;;;8.60;;
7047;SDS011;3565;53.254;10.352;2023-03-01T12:54:14;10.43;;;9.23;;
7047;SDS011;3565;53.254;10.352;2023-03-01T12:56:55;10.27;;;8.73;;
7047;SDS011;3565;53.254;10.352;2023-03-01T12:59:27;10.80;;;8.40;;
7047;SDS011;3565;53.254;10.352;2023-03-01T13:02:01;11.87;;;9.10;;
7047;SDS011;3565;53.254;10.352;2023-03-01T13:04:35;11.63;;;9.10;;
7047;SDS011;3565;53.254;10.352;2023-03-01T13:07:30;10.90;;;9.30;;
7047;SDS011;3565;53.254;10.352;2023-03-01T13:10:20;10.87;;;9.00;;
7047;SDS011;3565;53.254;10.352;2023-03-01T13:13:00;14.87;;;9.17;;
7047;SDS011;3565;53.254;10.352;2023-03-01T13:15:32;12.37;;;9.27;;
7047;SDS011;3565;53.254;10.352;2023-03-01T13:18:04;9.97;;;8.90;;
7047;SDS011;3565;53.254;10.352;2023-03-01T13:20:46;11.23;;;9.17;;
7047;SDS011;3565;53.254;10.352;2023-03-01T13:23:24;12.70;;;9.27;;
7047;SDS011;3565;53.254;10.352;2023-03-01T13:28:59;13.70;;;10.20;;
7047;SDS011;3565;53.254;10.352;2023-03-01T13:34:43;12.10;;;9.57;;
7047;SDS011;3565;53.254;10.352;2023-03-01T13:37:24;11.77;;;9.77;;
7047;SDS011;3565;53.254;10.352;2023-03-01T13:39:59;11.17;;;9.17;;
7047;SDS011;3565;53.254;10.352;2023-03-01T13:42:33;11.43;;;9.77;;
7047;SDS011;3565;53.254;10.352;2023-03-01T13:45:12;12.47;;;9.67;;
7047;SDS011;3565;53.254;10.352;2023-03-01T13:48:02;11.23;;;9.83;;
7047;SDS011;3565;53.254;10.352;2023-03-01T13:50:36;10.13;;;9.00;;
7047;SDS011;3565;53.254;10.352;2023-03-01T13:53:07;11.37;;;9.47;;
7047;SDS011;3565;53.254;10.352;2023-03-01T13:55:42;13.00;;;9.40;;
7047;SDS011;3565;53.254;10.352;2023-03-01T13:58:16;12.67;;;10.43;;
7047;SDS011;3565;53.254;10.352;2023-03-01T14:00:58;12.47;;;9.03;;
7047;SDS011;3565;53.254;10.352;2023-03-01T14:03:30;10.67;;;9.17;;
7047;SDS011;3565;53.254;10.352;2023-03-01T14:06:02;14.60;;;8.97;;
7047;SDS011;3565;53.254;10.352;2023-03-01T14:08:36;10.27;;;8.33;;
7047;SDS011;3565;53.254;10.352;2023-03-01T14:11:29;9.57;;;8.57;;
7047;SDS011;3565;53.254;10.352;2023-03-01T14:17:27;12.67;;;9.13;;
7047;SDS011;3565;53.254;10.352;2023-03-01T14:20:09;10.67;;;9.00;;
7047;SDS011;3565;53.254;10.352;2023-03-01T14:22:41;17.27;;;9.37;;
7047;SDS011;3565;53.254;10.352;2023-03-01T14:25:18;13.63;;;10.33;;
7047;SDS011;3565;53.254;10.352;2023-03-01T14:27:57;11.37;;;9.27;;
7047;SDS011;3565;53.254;10.352;2023-03-01T14:30:31;12.17;;;9.43;;
7047;SDS011;3565;53.254;10.352;2023-03-01T14:33:04;11.70;;;9.00;;
7047;SDS011;3565;53.254;10.352;2023-03-01T14:35:51;10.20;;;8.63;;
7047;SDS011;3565;53.254;10.352;2023-03-01T14:38:27;10.57;;;8.57;;
7047;SDS011;3565;53.254;10.352;2023-03-01T14:40:59;11.83;;;9.53;;
7047;SDS011;3565;53.254;10.352;2023-03-01T14:43:31;11.53;;;9.10;;
7047;SDS011;3565;53.254;10.352;2023-03-01T14:46:01;10.83;;;8.30;;
7047;SDS011;3565;53.254;10.352;2023-03-01T14:48:30;11.77;;;9.03;;
7047;SDS011;3565;53.254;10.352;2023-03-01T14:51:00;10.50;;;9.10;;
7047;SDS011;3565;53.254;10.352;2023-03-01T14:53:30;10.33;;;8.70;;
7047;SDS011;3565;53.254;10.352;2023-03-01T14:56:01;10.70;;;7.97;;
7047;SDS011;3565;53.254;10.352;2023-03-01T14:58:31;11.10;;;9.17;;
7047;SDS011;3565;53.254;10.352;2023-03-01T15:01:02;12.70;;;8.90;;
7047;SDS011;3565;53.254;10.352;2023-03-01T15:03:32;11.97;;;9.20;;
7047;SDS011;3565;53.254;10.352;2023-03-01T15:06:04;12.30;;;9.10;;
7047;SDS011;3565;53.254;10.352;2023-03-01T15:08:34;10.20;;;8.10;;
7047;SDS011;3565;53.254;10.352;2023-03-01T15:11:15;11.27;;;8.30;;
7047;SDS011;3565;53.254;10.352;2023-03-01T15:13:48;12.03;;;8.50;;
7047;SDS011;3565;53.254;10.352;2023-03-01T15:16:27;9.67;;;8.63;;
7047;SDS011;3565;53.254;10.352;2023-03-01T15:18:58;10.33;;;8.23;;
7047;SDS011;3565;53.254;10.352;2023-03-01T15:21:30;8.83;;;7.57;;
7047;SDS011;3565;53.254;10.352;2023-03-01T15:24:02;9.57;;;8.10;;
7047;SDS011;3565;53.254;10.352;2023-03-01T15:26:37;9.03;;;7.70;;
7047;SDS011;3565;53.254;10.352;2023-03-01T15:29:11;7.77;;;6.63;;
7047;SDS011;3565;53.254;10.352;2023-03-01T15:31:50;9.13;;;6.77;;
7047;SDS011;3565;53.254;10.352;2023-03-01T15:34:23;9.57;;;7.90;;
7047;SDS011;3565;53.254;10.352;2023-03-01T15:36:53;8.43;;;6.80;;
7047;SDS011;3565;53.254;10.352;2023-03-01T15:39:26;8.90;;;6.53;;
7047;SDS011;3565;53.254;10.352;2023-03-01T15:42:03;9.53;;;7.00;;
7047;SDS011;3565;53.254;10.352;2023-03-01T15:44:35;8.77;;;7.17;;
7047;SDS011;3565;53.254;10.352;2023-03-01T15:47:06;9.83;;;7.70;;
7047;SDS011;3565;53.254;10.352;2023-03-01T15:49:38;8.20;;;7.27;;
7047;SDS011;3565;53.254;10.352;2023-03-01T15:52:10;9.13;;;7.10;;
7047;SDS011;3565;53.254;10.352;2023-03-01T15:54:42;7.60;;;6.10;;
7047;SDS011;3565;53.254;10.352;2023-03-01T15:57:12;8.67;;;6.90;;